Terminal Aerodrome Forecast
Issued by NWS Wilmington, NC

Home | Current Version | Previous Version | Text Only | Print | Product List | Glossary On
Versions: 1 2 3 4 5 6 7 8 9 10 11 12 13 14 15
000
FTUS42 KILM 212300 CCA
TAFILM
TAF COR
KILM 212359Z 2200/2224 04008KT P6SM -RA BKN025 OVC060
      TEMPO 2204/2206 FEW008 BKN015
     FM220600 03009KT 6SM -RA BR BKN008 OVC015
     FM221000 02006KT 5SM -RA BR BKN004 OVC008
     FM221600 35008KT P6SM OVC007=

USA.gov is the U.S. government's official web portal to all federal, state and local government web resources and services.